createdAt,value
2022-09-22T00:01:34.447Z,13.81
2022-09-22T00:04:13.809Z,13.77
2022-09-22T00:06:51.359Z,14.15
2022-09-22T00:09:21.487Z,14.10
2022-09-22T00:11:53.957Z,13.90
2022-09-22T00:14:28.195Z,13.87
2022-09-22T00:17:02.153Z,13.88
2022-09-22T00:19:39.191Z,13.66
2022-09-22T00:22:07.053Z,13.76
2022-09-22T00:24:35.132Z,13.73
2022-09-22T00:27:02.836Z,13.49
2022-09-22T00:29:30.915Z,13.58
2022-09-22T00:32:00.380Z,13.63
2022-09-22T00:34:30.886Z,13.51
2022-09-22T00:36:58.203Z,13.57
2022-09-22T00:39:27.192Z,13.46
2022-09-22T00:41:54.474Z,13.41
2022-09-22T00:44:29.893Z,13.53
2022-09-22T00:47:47.856Z,13.37
2022-09-22T00:50:23.488Z,13.56
2022-09-22T00:53:10.298Z,13.40
2022-09-22T00:56:01.599Z,13.34
2022-09-22T00:58:37.903Z,13.63
2022-09-22T01:01:07.757Z,13.48
2022-09-22T01:03:39.173Z,13.40
2022-09-22T01:06:12.588Z,13.29
2022-09-22T01:08:40.661Z,13.28
2022-09-22T01:11:08.347Z,13.25
2022-09-22T01:14:48.716Z,13.17
2022-09-22T01:17:47.252Z,13.18
2022-09-22T01:21:11.231Z,13.15
2022-09-22T01:24:41.128Z,12.97
2022-09-22T01:27:53.876Z,13.03
2022-09-22T01:30:43.655Z,12.95
2022-09-22T01:33:40.952Z,12.92
2022-09-22T01:36:40.147Z,12.80
2022-09-22T01:39:53.844Z,12.80
2022-09-22T01:42:40.076Z,12.79
2022-09-22T01:45:18.573Z,12.77
2022-09-22T01:47:55.084Z,12.79
2022-09-22T01:50:45.283Z,12.78
2022-09-22T01:53:18.409Z,12.64
2022-09-22T01:55:59.124Z,12.63
2022-09-22T01:58:34.330Z,12.56
2022-09-22T02:01:20.419Z,12.40
2022-09-22T02:04:09.420Z,12.36
2022-09-22T02:06:48.456Z,12.60
2022-09-22T02:09:21.503Z,12.39
2022-09-22T02:11:49.255Z,12.32
2022-09-22T02:14:17.249Z,12.38
2022-09-22T02:16:44.756Z,12.33
2022-09-22T02:19:36.233Z,12.42
2022-09-22T02:22:07.043Z,12.33
2022-09-22T02:24:44.510Z,11.97
2022-09-22T02:27:27.532Z,12.09
2022-09-22T02:30:11.104Z,12.07
2022-09-22T02:32:46.155Z,12.01
2022-09-22T02:35:14.493Z,11.74
2022-09-22T02:37:56.087Z,11.66
2022-09-22T02:41:00.757Z,11.93
2022-09-22T02:43:58.606Z,11.95
2022-09-22T02:47:07.859Z,11.94
2022-09-22T02:49:35.503Z,11.96
2022-09-22T02:52:08.939Z,12.00
2022-09-22T02:54:36.260Z,11.97
2022-09-22T02:57:03.663Z,12.14
2022-09-22T02:59:30.923Z,11.94
2022-09-22T03:01:58.226Z,11.86
2022-09-22T03:04:25.919Z,11.83
2022-09-22T03:06:54.004Z,11.79
2022-09-22T03:09:21.255Z,11.78
2022-09-22T03:11:48.531Z,11.76
2022-09-22T03:14:15.823Z,11.86
2022-09-22T03:16:43.080Z,11.91
2022-09-22T03:19:10.327Z,11.92
2022-09-22T03:21:38.147Z,11.83
2022-09-22T03:24:05.952Z,11.60
2022-09-22T03:26:34.795Z,11.82
2022-09-22T03:29:03.872Z,11.59
2022-09-22T03:31:31.123Z,11.47
2022-09-22T03:34:02.004Z,11.10
2022-09-22T03:36:29.301Z,11.03
2022-09-22T03:38:56.788Z,11.22
2022-09-22T03:41:24.260Z,11.21
2022-09-22T03:43:51.571Z,11.21
2022-09-22T03:46:18.992Z,11.32
2022-09-22T03:48:46.281Z,11.49
2022-09-22T03:51:13.698Z,11.39
2022-09-22T03:53:41.243Z,11.04
2022-09-22T03:56:14.613Z,11.08
2022-09-22T03:58:43.100Z,11.01
2022-09-22T04:01:11.596Z,11.16
2022-09-22T04:03:39.884Z,11.06
2022-09-22T04:06:07.932Z,10.95
2022-09-22T04:08:35.979Z,10.94
2022-09-22T04:11:06.704Z,11.00
2022-09-22T04:13:35.472Z,10.98
2022-09-22T04:16:05.320Z,10.67
2022-09-22T04:18:32.862Z,11.03
2022-09-22T04:21:01.109Z,11.06
2022-09-22T04:23:28.391Z,10.98
2022-09-22T04:25:56.488Z,11.09
2022-09-22T04:28:23.739Z,11.00
2022-09-22T04:30:52.838Z,10.96
2022-09-22T04:33:20.388Z,11.08
2022-09-22T04:35:51.887Z,11.07
2022-09-22T04:38:19.460Z,11.01
2022-09-22T04:40:46.910Z,11.13
2022-09-22T04:43:14.256Z,11.05
2022-09-22T04:45:47.267Z,10.88
2022-09-22T04:48:16.817Z,10.65
2022-09-22T04:50:48.070Z,10.80
2022-09-22T04:53:16.148Z,10.96
2022-09-22T04:55:43.397Z,11.15
2022-09-22T04:58:10.669Z,10.86
2022-09-22T05:00:38.528Z,11.01
2022-09-22T05:03:13.002Z,11.10
2022-09-22T05:05:40.517Z,10.95
2022-09-22T05:08:07.878Z,11.14
2022-09-22T05:10:35.795Z,11.15
2022-09-22T05:13:04.108Z,11.19
2022-09-22T05:15:33.155Z,11.06
2022-09-22T05:18:00.564Z,11.00
2022-09-22T05:20:28.644Z,11.05
2022-09-22T05:22:55.898Z,11.17
2022-09-22T05:25:23.212Z,11.21
2022-09-22T05:27:55.263Z,11.08
2022-09-22T05:30:26.463Z,11.06
2022-09-22T05:32:54.783Z,11.12
2022-09-22T05:35:25.028Z,11.17
2022-09-22T05:37:53.721Z,11.22
2022-09-22T05:40:24.092Z,11.17
2022-09-22T05:42:53.637Z,11.05
2022-09-22T05:45:21.952Z,11.09
2022-09-22T05:47:49.633Z,11.12
2022-09-22T05:50:20.728Z,11.19
2022-09-22T05:52:48.047Z,11.02
2022-09-22T05:55:15.716Z,11.02
2022-09-22T05:57:43.964Z,10.94
2022-09-22T06:00:13.572Z,11.08
2022-09-22T06:02:43.998Z,11.16
2022-09-22T06:05:11.409Z,11.10
2022-09-22T06:07:38.768Z,11.32
2022-09-22T06:10:07.609Z,11.22
2022-09-22T06:12:34.861Z,11.32
2022-09-22T06:15:02.179Z,11.26
2022-09-22T06:17:29.550Z,11.32
2022-09-22T06:20:00.798Z,11.45
2022-09-22T06:22:28.193Z,11.48
2022-09-22T06:24:55.456Z,11.51
2022-09-22T06:27:22.756Z,11.60
2022-09-22T06:29:50.020Z,11.49
2022-09-22T06:32:19.421Z,11.36
2022-09-22T06:34:47.543Z,11.48
2022-09-22T06:37:16.147Z,11.43
2022-09-22T06:39:43.427Z,11.48
2022-09-22T06:42:10.911Z,11.45
2022-09-22T06:44:38.720Z,11.57
2022-09-22T06:47:06.030Z,11.51
2022-09-22T06:49:33.315Z,11.59
2022-09-22T06:52:00.697Z,11.87
2022-09-22T06:54:28.767Z,11.78
2022-09-22T06:56:56.050Z,11.51
2022-09-22T06:59:23.323Z,11.68
2022-09-22T07:01:50.658Z,11.89
2022-09-22T07:04:18.039Z,11.79
2022-09-22T07:06:45.754Z,12.02
2022-09-22T07:09:13.073Z,12.06
2022-09-22T07:11:40.694Z,12.13
2022-09-22T07:14:09.105Z,12.24
2022-09-22T07:16:37.191Z,12.26
2022-09-22T07:19:05.570Z,12.29
2022-09-22T07:21:36.360Z,12.39
2022-09-22T07:24:08.188Z,12.42
2022-09-22T07:26:39.983Z,12.37
2022-09-22T07:29:13.816Z,12.53
2022-09-22T07:31:42.040Z,12.45
2022-09-22T07:34:09.500Z,12.53
2022-09-22T07:36:40.033Z,12.59
2022-09-22T07:39:11.122Z,12.75
2022-09-22T07:41:43.083Z,12.86
2022-09-22T07:44:34.771Z,12.83
2022-09-22T07:47:03.701Z,13.09
2022-09-22T07:49:31.108Z,13.07
2022-09-22T07:51:58.868Z,13.02
2022-09-22T07:54:27.897Z,13.13
2022-09-22T07:56:58.352Z,13.23
2022-09-22T07:59:27.167Z,13.17
2022-09-22T08:01:54.534Z,13.30
2022-09-22T08:04:23.702Z,13.40
2022-09-22T08:06:56.803Z,13.42
2022-09-22T08:09:27.088Z,13.46
2022-09-22T08:11:55.082Z,13.61
2022-09-22T08:14:23.174Z,13.61
2022-09-22T08:16:53.437Z,13.77
2022-09-22T08:19:23.687Z,13.79
2022-09-22T08:21:54.448Z,13.92
2022-09-22T08:24:23.524Z,13.87
2022-09-22T08:26:55.835Z,14.11
2022-09-22T08:29:24.487Z,14.17
2022-09-22T08:31:52.077Z,14.29
2022-09-22T08:34:20.235Z,14.30
2022-09-22T08:36:50.286Z,14.31
2022-09-22T08:39:18.758Z,14.55
2022-09-22T08:42:15.722Z,14.54
2022-09-22T08:45:30.076Z,14.63
2022-09-22T08:48:39.864Z,14.74
2022-09-22T08:51:42.988Z,14.84
2022-09-22T08:54:10.692Z,14.93
2022-09-22T08:56:59.152Z,15.03
2022-09-22T08:59:52.079Z,15.15
2022-09-22T09:03:16.579Z,15.30
2022-09-22T09:06:04.214Z,15.47
2022-09-22T09:09:05.720Z,15.52
2022-09-22T09:12:17.984Z,15.68
2022-09-22T09:15:43.665Z,15.93
2022-09-22T09:18:22.956Z,16.05
2022-09-22T09:20:52.700Z,16.03
2022-09-22T09:26:20.633Z,16.41
2022-09-22T09:29:03.044Z,16.47
2022-09-22T09:31:48.922Z,16.61
2022-09-22T09:34:24.554Z,16.84
2022-09-22T09:37:07.797Z,16.89
2022-09-22T09:39:42.596Z,17.15
2022-09-22T09:42:27.412Z,17.08
2022-09-22T09:44:57.627Z,17.28
2022-09-22T09:48:17.269Z,17.57
2022-09-22T09:50:44.603Z,17.87
2022-09-22T09:53:44.009Z,17.98
2022-09-22T09:56:29.938Z,17.98
2022-09-22T09:59:26.397Z,18.04
2022-09-22T10:01:54.813Z,18.35
2022-09-22T10:04:35.208Z,18.47
2022-09-22T10:07:41.860Z,18.63
2022-09-22T10:10:37.337Z,19.10
2022-09-22T10:13:26.152Z,19.07
2022-09-22T10:16:22.540Z,19.47
2022-09-22T10:18:58.904Z,19.53
2022-09-22T10:21:28.156Z,19.79
2022-09-22T10:24:00.747Z,19.82
2022-09-22T10:26:33.463Z,19.96
2022-09-22T10:29:12.459Z,20.14
2022-09-22T10:31:41.945Z,20.49
2022-09-22T10:34:41.839Z,20.73
2022-09-22T10:37:23.301Z,20.68
2022-09-22T10:40:03.145Z,20.96
2022-09-22T10:42:46.177Z,20.84
2022-09-22T10:45:20.125Z,21.17
2022-09-22T10:48:54.800Z,21.44
2022-09-22T10:52:43.776Z,21.69
2022-09-22T10:56:21.096Z,21.78
2022-09-22T10:59:44.159Z,22.18
2022-09-22T11:03:07.798Z,22.32
2022-09-22T11:07:31.988Z,22.70
2022-09-22T11:10:34.439Z,23.06
2022-09-22T11:14:00.476Z,23.10
2022-09-22T11:17:17.206Z,23.36
2022-09-22T11:20:22.982Z,23.18
2022-09-22T11:23:24.767Z,23.61
2022-09-22T11:26:02.455Z,23.62
2022-09-22T11:29:23.405Z,24.20
2022-09-22T11:32:30.160Z,24.20
2022-09-22T11:35:37.417Z,24.63
2022-09-22T11:39:12.195Z,24.37
2022-09-22T11:42:46.056Z,24.71
2022-09-22T11:46:06.768Z,25.19
2022-09-22T11:49:20.872Z,25.30
2022-09-22T11:52:31.113Z,24.87
2022-09-22T11:55:46.987Z,25.20
2022-09-22T11:58:23.192Z,25.78
2022-09-22T12:01:14.934Z,25.69
2022-09-22T12:04:17.575Z,25.57
2022-09-22T12:06:50.612Z,25.47
2022-09-22T12:09:42.312Z,25.46
2022-09-22T12:12:19.996Z,25.76
2022-09-22T12:15:38.089Z,26.10
2022-09-22T12:18:39.224Z,26.15
2022-09-22T12:21:49.039Z,26.32
2022-09-22T12:24:16.704Z,26.13
2022-09-22T12:26:48.131Z,26.68
2022-09-22T12:29:15.231Z,26.42
2022-09-22T12:31:48.405Z,26.22
2022-09-22T12:34:28.075Z,26.86
2022-09-22T12:37:08.404Z,26.98
2022-09-22T12:39:48.180Z,26.75
2022-09-22T12:42:40.255Z,26.56
2022-09-22T12:45:42.223Z,26.95
2022-09-22T12:48:22.900Z,26.73
2022-09-22T12:50:52.379Z,27.23
2022-09-22T12:53:23.821Z,26.48
2022-09-22T12:55:54.460Z,26.92
2022-09-22T12:58:21.561Z,27.48
2022-09-22T13:01:34.199Z,27.11
2022-09-22T13:04:18.023Z,27.20
2022-09-22T13:06:45.853Z,26.20
2022-09-22T13:09:25.951Z,27.02
2022-09-22T13:12:12.341Z,27.32
2022-09-22T13:15:07.345Z,27.69
2022-09-22T13:17:50.623Z,27.07
2022-09-22T13:20:35.509Z,26.65
2022-09-22T13:23:12.966Z,27.23
2022-09-22T13:25:42.551Z,27.52
2022-09-22T13:28:09.611Z,27.46
2022-09-22T13:30:40.176Z,27.30
2022-09-22T13:33:25.711Z,27.75
2022-09-22T13:36:16.883Z,26.64
2022-09-22T13:38:55.252Z,27.47
2022-09-22T13:41:29.764Z,27.36
2022-09-22T13:44:11.826Z,27.34
2022-09-22T13:46:50.305Z,27.53
2022-09-22T13:49:43.742Z,27.32
2022-09-22T13:52:32.224Z,27.17
2022-09-22T13:55:13.152Z,27.17
2022-09-22T13:57:41.684Z,27.56
2022-09-22T14:00:24.671Z,26.93
2022-09-22T14:02:55.867Z,27.51
2022-09-22T14:05:33.654Z,27.76
2022-09-22T14:08:12.807Z,27.28
2022-09-22T14:10:44.452Z,27.11
2022-09-22T14:13:53.927Z,27.21
2022-09-22T14:16:37.326Z,27.32
2022-09-22T14:20:00.227Z,27.68
2022-09-22T14:22:34.316Z,27.31
2022-09-22T14:25:03.651Z,27.07
2022-09-22T14:27:53.174Z,27.43
2022-09-22T14:30:21.934Z,27.15
2022-09-22T14:33:01.620Z,27.54
2022-09-22T14:35:37.308Z,27.32
2022-09-22T14:38:18.059Z,26.99
2022-09-22T14:41:02.857Z,27.66
2022-09-22T14:43:42.092Z,27.22
2022-09-22T14:46:41.336Z,27.35
2022-09-22T14:49:43.196Z,27.36
2022-09-22T14:52:34.711Z,27.59
2022-09-22T14:55:50.308Z,27.24
2022-09-22T14:58:30.197Z,27.81
2022-09-22T15:01:47.297Z,27.51
2022-09-22T15:04:28.525Z,27.82
2022-09-22T15:06:59.062Z,28.13
2022-09-22T15:09:42.586Z,27.73
2022-09-22T15:12:49.222Z,27.93
2022-09-22T15:15:29.211Z,27.68
2022-09-22T15:18:16.653Z,27.59
2022-09-22T15:21:02.890Z,27.54
2022-09-22T15:23:44.976Z,27.58
2022-09-22T15:26:25.684Z,27.19
2022-09-22T15:29:01.609Z,27.31
2022-09-22T15:31:29.903Z,27.16
2022-09-22T15:34:01.543Z,26.99
2022-09-22T15:36:32.881Z,27.00
2022-09-22T15:39:21.546Z,26.83
2022-09-22T15:41:49.593Z,27.22
2022-09-22T15:44:19.633Z,27.45
2022-09-22T15:46:54.044Z,27.31
2022-09-22T15:49:26.492Z,26.80
2022-09-22T15:51:57.478Z,27.03
2022-09-22T15:54:26.364Z,27.28
2022-09-22T15:56:56.383Z,26.61
2022-09-22T15:59:32.319Z,26.99
2022-09-22T16:02:01.201Z,26.54
2022-09-22T16:04:31.438Z,26.58
2022-09-22T16:07:04.721Z,26.72
2022-09-22T16:09:32.096Z,26.76
2022-09-22T16:11:59.664Z,26.40
2022-09-22T16:14:26.954Z,26.10
2022-09-22T16:16:54.248Z,26.07
2022-09-22T16:19:21.576Z,26.10
2022-09-22T16:21:55.955Z,25.60
2022-09-22T16:24:23.473Z,25.57
2022-09-22T16:26:51.800Z,25.85
2022-09-22T16:29:20.356Z,25.59
2022-09-22T16:31:47.691Z,25.18
2022-09-22T16:34:15.022Z,25.06
2022-09-22T16:36:44.508Z,25.02
2022-09-22T16:39:11.759Z,24.93
2022-09-22T16:41:46.751Z,24.72
2022-09-22T16:44:14.225Z,24.43
2022-09-22T16:46:43.466Z,24.23
2022-09-22T16:49:16.245Z,24.38
2022-09-22T16:51:49.697Z,24.05
2022-09-22T16:54:19.465Z,23.89
2022-09-22T16:56:50.455Z,23.98
2022-09-22T16:59:23.216Z,23.69
2022-09-22T17:01:53.154Z,23.46
2022-09-22T17:04:20.567Z,23.60
2022-09-22T17:06:49.806Z,23.40
2022-09-22T17:09:18.940Z,23.28
2022-09-22T17:11:49.135Z,23.11
2022-09-22T17:14:24.409Z,22.90
2022-09-22T17:16:55.391Z,22.88
2022-09-22T17:19:27.899Z,22.87
2022-09-22T17:21:56.739Z,22.71
2022-09-22T17:24:26.818Z,22.60
2022-09-22T17:27:01.743Z,22.54
2022-09-22T17:29:32.595Z,22.46
2022-09-22T17:32:09.124Z,22.46
2022-09-22T17:34:38.266Z,22.38
2022-09-22T17:37:05.788Z,22.29
2022-09-22T17:39:33.308Z,22.27
2022-09-22T17:42:00.763Z,22.32
2022-09-22T17:44:30.979Z,22.30
2022-09-22T17:47:18.652Z,22.23
2022-09-22T17:50:04.743Z,22.03
2022-09-22T17:52:31.983Z,22.19
2022-09-22T17:55:06.978Z,22.08
2022-09-22T17:57:39.677Z,22.13
2022-09-22T18:00:20.932Z,22.00
2022-09-22T18:02:53.330Z,21.90
2022-09-22T18:05:26.490Z,21.63
2022-09-22T18:07:58.416Z,21.73
2022-09-22T18:10:30.919Z,21.77
2022-09-22T18:12:59.304Z,21.45
2022-09-22T18:15:28.031Z,21.43
2022-09-22T18:17:57.692Z,21.29
2022-09-22T18:20:26.227Z,21.18
2022-09-22T18:22:54.726Z,21.08
2022-09-22T18:25:25.474Z,21.00
2022-09-22T18:27:53.533Z,21.18
2022-09-22T18:30:20.975Z,21.07
2022-09-22T18:32:48.938Z,20.86
2022-09-22T18:35:16.668Z,20.94
2022-09-22T18:37:44.012Z,20.56
2022-09-22T18:40:13.052Z,20.57
2022-09-22T18:42:43.277Z,20.29
2022-09-22T18:45:12.432Z,20.24
2022-09-22T18:47:43.161Z,20.14
2022-09-22T18:50:12.054Z,20.14
2022-09-22T18:52:42.831Z,20.23
2022-09-22T18:55:14.075Z,19.79
2022-09-22T18:57:41.376Z,19.93
2022-09-22T19:00:12.500Z,19.86
2022-09-22T19:02:39.900Z,19.65
2022-09-22T19:05:07.899Z,19.58
2022-09-22T19:07:43.381Z,19.31
2022-09-22T19:10:21.478Z,19.30
2022-09-22T19:12:50.156Z,19.33
2022-09-22T19:15:19.319Z,19.23
2022-09-22T19:17:49.470Z,19.14
2022-09-22T19:20:23.286Z,19.06
2022-09-22T19:22:52.321Z,19.02
2022-09-22T19:25:22.074Z,19.14
2022-09-22T19:27:53.328Z,19.06
2022-09-22T19:30:25.579Z,18.98
2022-09-22T19:32:55.883Z,18.89
2022-09-22T19:35:23.347Z,19.00
2022-09-22T19:37:51.835Z,18.97
2022-09-22T19:40:24.752Z,18.92
2022-09-22T19:42:54.232Z,19.07
2022-09-22T19:45:23.972Z,18.92
2022-09-22T19:47:58.471Z,18.80
2022-09-22T19:50:26.486Z,18.97
2022-09-22T19:52:53.868Z,18.88
2022-09-22T19:55:21.499Z,18.86
2022-09-22T19:57:49.900Z,18.74
2022-09-22T20:00:17.978Z,18.63
2022-09-22T20:02:46.048Z,18.62
2022-09-22T20:05:21.952Z,18.57
2022-09-22T20:07:50.365Z,18.58
2022-09-22T20:10:22.495Z,18.71
2022-09-22T20:12:51.988Z,18.51
2022-09-22T20:15:20.272Z,18.57
2022-09-22T20:17:47.996Z,18.38
2022-09-22T20:20:25.784Z,18.42
2022-09-22T20:23:00.136Z,18.43
2022-09-22T20:25:32.275Z,18.25
2022-09-22T20:28:00.491Z,18.25
2022-09-22T20:30:27.900Z,18.19
2022-09-22T20:32:55.161Z,17.99
2022-09-22T20:35:22.442Z,18.05
2022-09-22T20:37:51.488Z,18.01
2022-09-22T20:40:22.022Z,18.12
2022-09-22T20:42:53.106Z,18.01
2022-09-22T20:45:25.207Z,17.98
2022-09-22T20:47:56.049Z,17.87
2022-09-22T20:50:23.640Z,17.90
2022-09-22T20:52:50.953Z,17.85
2022-09-22T20:55:18.264Z,17.83
2022-09-22T20:57:45.553Z,17.88
2022-09-22T21:00:16.128Z,17.69
2022-09-22T21:02:44.237Z,17.60
2022-09-22T21:05:11.524Z,17.61
2022-09-22T21:07:39.612Z,17.42
2022-09-22T21:10:25.644Z,17.36
2022-09-22T21:12:55.126Z,17.28
2022-09-22T21:15:22.822Z,17.41
2022-09-22T21:17:50.417Z,17.51
2022-09-22T21:20:17.743Z,17.27
2022-09-22T21:22:45.102Z,17.33
2022-09-22T21:25:12.863Z,17.24
2022-09-22T21:27:40.284Z,17.09
2022-09-22T21:30:08.495Z,16.98
2022-09-22T21:32:35.789Z,17.12
2022-09-22T21:35:03.184Z,16.88
2022-09-22T21:37:31.334Z,16.88
2022-09-22T21:39:58.596Z,16.99
2022-09-22T21:42:26.876Z,16.94
2022-09-22T21:44:54.171Z,16.89
2022-09-22T21:47:21.421Z,16.88
2022-09-22T21:49:50.377Z,16.66
2022-09-22T21:52:17.685Z,16.71
2022-09-22T21:54:44.933Z,16.75
2022-09-22T21:57:12.215Z,16.50
2022-09-22T21:59:39.455Z,16.54
2022-09-22T22:02:06.719Z,16.44
2022-09-22T22:04:34.430Z,16.40
2022-09-22T22:07:01.917Z,16.23
2022-09-22T22:09:29.180Z,16.49
2022-09-22T22:11:59.331Z,16.57
2022-09-22T22:14:33.426Z,16.51
2022-09-22T22:17:02.345Z,16.31
2022-09-22T22:19:29.956Z,16.46
2022-09-22T22:21:57.248Z,16.33
2022-09-22T22:24:28.753Z,16.27
2022-09-22T22:27:07.817Z,16.21
2022-09-22T22:29:36.613Z,16.14
2022-09-22T22:32:08.871Z,16.19
2022-09-22T22:34:36.732Z,16.05
2022-09-22T22:37:07.035Z,16.10
2022-09-22T22:39:34.403Z,16.06
2022-09-22T22:42:02.517Z,16.20
2022-09-22T22:44:29.808Z,16.02
2022-09-22T22:46:57.163Z,15.77
2022-09-22T22:49:25.340Z,15.75
2022-09-22T22:51:52.778Z,15.92
2022-09-22T22:54:20.046Z,15.91
2022-09-22T22:56:51.001Z,15.97
2022-09-22T22:59:19.318Z,16.01
2022-09-22T23:01:46.669Z,15.87
2022-09-22T23:04:14.031Z,15.70
2022-09-22T23:06:44.093Z,15.58
2022-09-22T23:09:16.742Z,15.84
2022-09-22T23:11:46.194Z,15.63
2022-09-22T23:14:15.893Z,15.82
2022-09-22T23:16:47.591Z,15.76
2022-09-22T23:19:18.274Z,15.59
2022-09-22T23:21:46.718Z,15.45
2022-09-22T23:24:18.816Z,15.59
2022-09-22T23:26:47.040Z,15.59
2022-09-22T23:29:14.491Z,15.41
2022-09-22T23:31:42.253Z,15.31
2022-09-22T23:34:09.675Z,15.25
2022-09-22T23:36:37.052Z,15.43
2022-09-22T23:39:05.031Z,15.20
2022-09-22T23:41:36.210Z,15.33
2022-09-22T23:44:08.463Z,15.37
2022-09-22T23:46:37.468Z,15.13
2022-09-22T23:49:06.151Z,15.22
2022-09-22T23:51:33.419Z,15.31
2022-09-22T23:54:01.269Z,15.30
2022-09-22T23:56:28.681Z,15.28
2022-09-22T23:58:56.121Z,15.15
